Weather reports worldwide

Advertisment
Chamonix, France (7469): temperature & dewpoint: 25.09.2020 00:00:00 - 01.10.2020 00:00:00 (CEST)Chamonix, France (7469): wind speed & gusts: 25.09.2020 00:00:00 - 01.10.2020 00:00:00 (CEST)Chamonix, France (7469): wind direction: 25.09.2020 00:00:00 - 01.10.2020 00:00:00 (CEST)Chamonix, France (7469): precipitation: 25.09.2020 00:00:00 - 01.10.2020 00:00:00 (CEST)
Date & Time tt [°C] td [°C] ff [km/h] ff [kn] fx [km/h] fx [kn] dd rr [mm]
01.10.2020 00:00:00 - - - - - - - -
30.09.2020 23:00:00 - - - - - - - -
30.09.2020 22:00:00 - - - - - - - -
30.09.2020 21:00:00 - - - - - - - -
30.09.2020 20:00:00 9,1 8,2 4 2 9 5 NNW 0,0
30.09.2020 19:00:00 11,3 9,6 0 0 12 7 N 0,0
30.09.2020 18:00:00 - - - - - - - -
30.09.2020 17:00:00 - - - - - - - -
30.09.2020 16:00:00 - - - - - - - -
30.09.2020 15:00:00 - - - - - - - -
30.09.2020 14:00:00 18,6 5,4 4 2 15 8 SSW 0,0
30.09.2020 13:00:00 - - - - - - - -
30.09.2020 12:00:00 13,7 7,7 3 2 7 4 S 0,0
30.09.2020 11:00:00 - - - - - - - -
30.09.2020 10:00:00 - - - - - - - -
30.09.2020 09:00:00 - - - - - - - -
30.09.2020 08:00:00 2,6 2,6 3 2 6 4 NNE 0,0
30.09.2020 07:00:00 - - - - - - - -
30.09.2020 06:00:00 2,8 2,7 0 0 4 2 N 0,0
30.09.2020 05:00:00 - - - - - - - -
30.09.2020 04:00:00 3,8 3,7 0 0 4 2 N 0,0
30.09.2020 03:00:00 4,4 4,3 3 2 8 4 NE 0,0
30.09.2020 02:00:00 4,8 4,7 3 2 8 4 N 0,0
30.09.2020 01:00:00 5,4 5,1 0 0 8 5 N 0,0
30.09.2020 00:00:00 6,3 5,9 2 1 6 3 NE 0,0
29.09.2020 23:00:00 - - - - - - - -
29.09.2020 22:00:00 - - - - - - - -
29.09.2020 21:00:00 8,9 8,1 0 0 7 4 N 0,0
29.09.2020 20:00:00 10,3 9,1 0 0 14 7 N 0,0
29.09.2020 19:00:00 - - - - - - - -
29.09.2020 18:00:00 13,6 8,6 5 3 20 11 WSW 0,0
29.09.2020 17:00:00 - - - - - - - -
29.09.2020 16:00:00 - - - - - - - -
29.09.2020 15:00:00 16,9 8,3 5 3 11 6 SW 0,0
29.09.2020 14:00:00 14,9 7,0 3 2 14 8 NW 0,0
29.09.2020 13:00:00 13,0 7,2 4 2 13 7 NNE 0,0
29.09.2020 12:00:00 - - - - - - - -
29.09.2020 11:00:00 8,3 6,9 3 2 6 3 NW 0,0
29.09.2020 10:00:00 7,7 7,3 0 0 5 3 N 0,0
29.09.2020 09:00:00 6,8 6,8 2 1 6 3 NE 0,0
29.09.2020 08:00:00 6,5 6,5 3 2 8 4 N 0,0
29.09.2020 07:00:00 6,4 6,4 0 0 5 3 N 0,0
29.09.2020 06:00:00 6,4 6,4 3 1 5 3 WNW 0,0
29.09.2020 05:00:00 6,5 6,4 0 0 5 3 N 0,0
29.09.2020 04:00:00 6,6 6,5 0 0 6 3 N 0,2
29.09.2020 03:00:00 6,7 6,6 0 0 4 2 N 0,0
29.09.2020 02:00:00 6,8 6,7 2 1 5 3 NNE 0,0
29.09.2020 01:00:00 7,0 6,9 2 1 6 3 N 0,2
29.09.2020 00:00:00 7,0 6,9 0 0 5 3 N 0,2
28.09.2020 23:00:00 6,9 6,6 0 0 6 3 N 0,2
28.09.2020 22:00:00 6,9 6,5 3 1 6 4 NNE 0,0
28.09.2020 21:00:00 7,0 6,1 0 0 9 5 N 0,0
28.09.2020 20:00:00 7,3 5,9 2 1 6 4 E 0,0
28.09.2020 19:00:00 8,3 6,1 0 0 9 5 N 0,0
28.09.2020 18:00:00 10,5 4,2 3 2 23 12 SSW 0,0
28.09.2020 17:00:00 11,2 3,7 5 3 20 11 SSW 0,0
28.09.2020 16:00:00 10,9 3,4 5 3 24 13 SSW 0,0
28.09.2020 15:00:00 11,9 3,6 6 3 22 12 S 0,0
28.09.2020 14:00:00 10,5 2,6 7 4 20 11 SW 0,0
28.09.2020 13:00:00 11,9 3,6 5 3 22 12 S 0,0
28.09.2020 12:00:00 10,5 3,7 5 3 14 8 SW 0,0
28.09.2020 11:00:00 5,5 3,3 0 0 5 3 N 0,0
28.09.2020 10:00:00 2,6 2,6 0 0 6 3 N 0,0
28.09.2020 09:00:00 2,2 2,1 0 0 5 3 N 0,0
28.09.2020 08:00:00 2,7 2,6 2 1 5 3 NNW 0,0
28.09.2020 07:00:00 3,0 2,9 2 1 6 3 ENE 0,0
28.09.2020 06:00:00 3,0 2,9 0 0 4 2 N 0,0
28.09.2020 05:00:00 3,0 2,9 0 0 6 3 N 0,0
28.09.2020 04:00:00 3,1 3,0 0 0 4 2 N 0,0
28.09.2020 03:00:00 3,1 2,8 2 1 5 3 E 0,0
28.09.2020 02:00:00 3,5 3,2 2 1 6 4 WNW 0,0
28.09.2020 01:00:00 3,3 3,0 0 0 6 3 N 0,0
28.09.2020 00:00:00 3,3 3,0 0 0 4 2 N 0,0
27.09.2020 23:00:00 3,3 2,9 0 0 5 3 N 0,0
27.09.2020 22:00:00 3,4 2,8 0 0 4 2 N 0,0
27.09.2020 21:00:00 3,9 3,0 0 0 6 3 N 0,0
27.09.2020 20:00:00 3,7 2,7 0 0 8 5 N 0,0
27.09.2020 19:00:00 5,1 2,4 3 1 14 8 S 0,0
27.09.2020 18:00:00 5,0 3,0 5 3 18 10 SW 0,0
27.09.2020 17:00:00 5,5 2,1 5 3 21 12 SW 0,0
27.09.2020 16:00:00 5,5 2,3 5 3 24 13 SSW 0,0
27.09.2020 15:00:00 5,6 2,2 6 4 23 12 SSW 0,0
27.09.2020 14:00:00 5,2 1,7 8 5 28 15 SW 0,0
27.09.2020 13:00:00 5,3 1,6 6 4 16 9 SW 0,0
27.09.2020 12:00:00 4,5 1,2 4 2 14 8 WSW 0,0
27.09.2020 11:00:00 4,0 1,7 2 1 14 7 SSW 0,0
27.09.2020 10:00:00 2,7 1,4 2 1 7 4 N 0,0
27.09.2020 09:00:00 1,3 1,0 0 0 6 3 N 0,0
27.09.2020 08:00:00 0,3 0,3 3 1 6 3 NW 0,0
27.09.2020 07:00:00 -0,8 -0,8 2 1 7 4 N 0,0
27.09.2020 06:00:00 -0,8 -0,9 3 2 9 5 NNE 0,0
27.09.2020 05:00:00 0,1 0,0 2 1 7 4 NNE 0,0
27.09.2020 04:00:00 0,4 0,4 3 2 7 4 NW 0,0
27.09.2020 03:00:00 0,1 -0,5 0 0 8 5 N 0,0
27.09.2020 02:00:00 1,7 1,3 3 1 8 5 E 0,0
27.09.2020 01:00:00 1,4 1,1 2 1 8 4 N 0,0
27.09.2020 00:00:00 1,8 1,5 4 2 8 4 NNE 0,0
26.09.2020 23:00:00 2,1 1,5 3 2 11 6 NE 0,0
26.09.2020 22:00:00 2,2 2,2 2 1 14 8 N 0,0
26.09.2020 21:00:00 1,9 1,6 2 1 5 3 NE 0,0
26.09.2020 20:00:00 2,6 1,7 0 0 8 5 N 0,0
26.09.2020 19:00:00 3,7 2,2 2 1 18 10 NE 0,0
26.09.2020 18:00:00 4,3 1,2 6 4 19 10 SW 0,0
26.09.2020 17:00:00 5,2 1,1 3 2 19 10 WSW 0,0
26.09.2020 16:00:00 4,3 1,2 2 1 20 11 ENE 0,0
26.09.2020 15:00:00 5,5 3,2 2 1 13 7 N 0,0
26.09.2020 14:00:00 6,1 2,7 3 1 27 14 ENE 0,0
26.09.2020 13:00:00 6,3 -0,5 4 2 14 7 WSW 0,0
26.09.2020 12:00:00 6,4 3,0 9 5 19 10 NW 0,0
26.09.2020 11:00:00 4,5 1,2 2 1 11 6 SSW 0,0
26.09.2020 10:00:00 3,9 2,7 3 2 9 5 NNW 0,0
26.09.2020 09:00:00 2,9 2,6 0 0 21 12 N 0,0
26.09.2020 08:00:00 2,4 1,5 5 3 27 14 S 0,2
26.09.2020 07:00:00 2,7 2,3 3 2 12 6 SW 0,0
26.09.2020 06:00:00 2,6 2,2 0 0 29 15 N 0,4
26.09.2020 05:00:00 2,8 1,8 6 3 29 15 S 1,0
26.09.2020 04:00:00 2,4 2,0 5 3 19 10 SSW 1,2
26.09.2020 03:00:00 2,1 1,8 3 1 26 14 ESE 0,8
26.09.2020 02:00:00 2,1 1,7 0 0 11 6 N 0,8
26.09.2020 01:00:00 2,8 2,4 2 1 25 13 W 0,8
26.09.2020 00:00:00 3,0 2,1 6 3 25 13 SW 0,4
25.09.2020 23:00:00 3,0 2,6 2 1 9 5 NNE 0,8
25.09.2020 22:00:00 3,1 3,0 2 1 9 5 NNE 0,0
25.09.2020 21:00:00 3,4 2,5 5 3 25 14 SSW 1,2
25.09.2020 20:00:00 3,7 2,7 6 3 26 14 SW 1,0
25.09.2020 19:00:00 4,2 3,2 10 5 27 14 WSW 0,4
25.09.2020 18:00:00 4,1 3,4 3 1 27 15 S 1,4
25.09.2020 17:00:00 4,8 3,6 3 1 24 13 W 0,4
25.09.2020 16:00:00 5,0 3,0 10 5 29 16 SSW 1,0
25.09.2020 15:00:00 5,8 4,3 6 3 20 11 WSW 0,2
25.09.2020 14:00:00 5,2 2,9 9 5 31 17 S 1,2
25.09.2020 13:00:00 7,1 4,4 4 2 21 12 NE 0,0
25.09.2020 12:00:00 7,3 3,9 8 4 27 14 S 0,0
25.09.2020 11:00:00 6,4 4,4 6 3 14 7 W 0,0
25.09.2020 10:00:00 5,2 4,2 3 1 19 11 SSW 0,0
25.09.2020 09:00:00 5,0 3,8 5 3 23 12 SSW 1,6
25.09.2020 08:00:00 5,4 4,8 3 1 19 10 SSW 1,0
25.09.2020 07:00:00 5,4 5,1 0 0 35 19 N 5,0
25.09.2020 06:00:00 7,2 5,5 11 6 38 20 SSW 3,2
25.09.2020 05:00:00 8,4 8,4 0 0 5 3 N 0,0
25.09.2020 04:00:00 8,4 8,4 0 0 14 8 N 0,0
25.09.2020 03:00:00 8,6 8,3 2 1 9 5 NNW 0,2
25.09.2020 02:00:00 9,8 9,7 3 1 9 5 W 0,0
25.09.2020 01:00:00 10,1 10,1 3 2 10 5 N 0,6
25.09.2020 00:00:00 10,1 9,9 2 1 8 4 NNW 0,0

tt = temperature
td = dewpoint
ff = wind speed
fx = gusts
dd = wind direction
rr = precipitation

Next stations